Latest Weather Observations for Brisbane

IDQ60801

Issued at 1:35 pm EST Sunday 21 September 2014 (issued every 30 minutes, with the page automatically refreshed every 10 minutes)

About weather observations | Map of weather stations | Latest weather observations for QLD | Other Formats
Station Details ID: 040913 Name: BRISBANE Lat: -27.48 Lon: 153.04 Height: 8.13 m
Data from the previous 72 hours. | See also: Recent months at Brisbane
Date/Time
EST
Temp
°C
App
Temp
°C
Dew
Point
Rel
Hum
%
Delta-T
°C
Wind Press
QNH
hPa
Press
MSL
hPa
Rain
since 9 am
mm
Dir
 
Spd
km/h
Gust
km/h
Spd
kts
Gust
kts
21/01:30pm 22.7 19.0 8.0 39 7.7 ESE 17 32 9 17 1023.9 1023.9 0.0
21/01:00pm 23.8 20.9 8.2 37 8.2 SE 13 24 7 13 1024.1 1024.1 0.0
21/12:30pm 23.1 19.5 9.8 43 7.2 E 19 32 10 17 1024.5 1024.5 0.0
21/12:00pm 22.9 19.8 9.0 41 7.4 ESE 15 28 8 15 1025.1 1025.1 0.0
21/11:30am 21.9 18.9 9.4 45 6.7 ESE 15 24 8 13 1025.3 1025.3 0.0
21/11:00am 22.4 19.5 9.6 44 6.9 ESE 15 26 8 14 1025.5 1025.5 0.0
21/10:30am 21.8 19.8 10.0 47 6.4 SE 11 20 6 11 1025.7 1025.7 0.0
21/10:00am 21.9 20.8 10.7 49 6.1 SE 7 15 4 8 1026.2 1026.2 0.0
21/09:30am 21.5 20.0 10.6 50 6.0 SE 9 22 5 12 1026.5 1026.5 0.0
21/09:00am 20.8 19.3 10.6 52 5.5 SSE 9 17 5 9 1026.5 1026.5 0.0
21/08:30am 19.4 18.3 9.9 54 5.1 SSW 6 13 3 7 1026.7 1026.7 0.0
21/08:00am 17.3 16.1 9.5 60 4.1 WSW 6 11 3 6 1026.4 1026.4 0.0
21/07:30am 16.0 15.1 9.4 65 3.4 SW 4 9 2 5 1026.2 1026.2 0.0
21/07:00am 15.3 14.8 9.2 67 3.1 SW 2 7 1 4 1026.1 1026.1 0.0
21/06:30am 13.7 12.8 9.2 74 2.3 SW 4 9 2 5 1025.7 1025.7 0.0
21/06:00am 13.0 11.6 8.9 76 2.0 SW 6 9 3 5 1025.3 1025.3 0.0
21/05:30am 12.9 12.0 9.2 78 1.9 SW 4 9 2 5 1025.0 1025.0 0.0
21/05:00am 13.1 11.8 9.2 77 2.0 SW 6 9 3 5 1024.8 1024.8 0.0
21/04:30am 13.3 12.1 9.4 77 2.0 SW 6 9 3 5 1024.6 1024.6 0.0
21/04:00am 13.1 12.2 9.4 78 1.9 SW 4 7 2 4 1024.3 1024.3 0.0
21/03:30am 13.3 12.8 9.5 78 1.9 WSW 2 6 1 3 1024.1 1024.1 0.0
21/03:00am 13.6 13.1 9.3 75 2.2 SW 2 7 1 4 1024.2 1024.2 0.0
21/02:30am 13.8 13.3 9.5 75 2.2 WSW 2 6 1 3 1024.4 1024.4 0.0
21/02:00am 14.2 13.5 10.0 76 2.2 SW 4 9 2 5 1024.6 1024.6 0.0
21/01:30am 14.3 14.0 10.1 76 2.2 WSW 2 6 1 3 1024.7 1024.7 0.0
21/01:00am 14.6 14.4 10.4 76 2.2 WSW 2 4 1 2 1024.9 1024.9 0.0
21/12:30am 15.3 15.1 10.3 72 2.6 SSW 2 7 1 4 1024.9 1024.9 0.0
21/12:00am 15.4 15.1 10.2 71 2.7 S 2 4 1 2 1024.8 1024.8 0.0
 
Date/Time
EST
Temp
°C
App
Temp
°C
Dew
Point
Rel
Hum
%
Delta-T
°C
Wind Press
QNH
hPa
Press
MSL
hPa
Rain
since 9 am
mm
Dir
 
Spd
km/h
Gust
km/h
Spd
kts
Gust
kts
20/11:30pm 15.6 15.3 11.4 76 2.3 S 4 7 2 4 1024.6 1024.6 0.0
20/11:00pm 14.4 14.5 10.2 76 2.2 CALM 0 0 0 0 1024.6 1024.6 0.0
20/10:30pm 15.2 15.4 10.4 73 2.5 CALM 0 0 0 0 1024.5 1024.5 0.0
20/10:00pm 15.9 16.3 11.1 73 2.6 CALM 0 0 0 0 1024.6 1024.6 0.0
20/09:30pm 15.6 15.8 10.4 71 2.7 CALM 0 0 0 0 1024.6 1024.6 0.0
20/09:00pm 16.5 16.7 10.4 67 3.2 CALM 0 4 0 2 1024.4 1024.4 0.0
20/08:30pm 17.8 17.3 10.9 64 3.7 SE 4 9 2 5 1024.0 1024.0 0.0
20/08:00pm 18.5 17.9 11.6 64 3.8 ESE 6 11 3 6 1023.6 1023.6 0.0
20/07:30pm 18.7 17.5 11.5 63 3.9 ESE 9 15 5 8 1023.1 1023.1 0.0
20/07:00pm 18.9 18.0 11.5 62 4.0 ESE 7 15 4 8 1022.6 1022.6 0.0
20/06:30pm 19.0 18.1 11.3 61 4.2 ESE 7 15 4 8 1022.2 1022.2 0.0
20/06:00pm 19.1 17.5 11.4 61 4.2 ESE 11 20 6 11 1021.6 1021.6 0.0
20/05:30pm 19.3 17.4 11.8 62 4.1 E 13 22 7 12 1021.0 1021.0 0.0
20/05:00pm 19.9 18.0 11.9 60 4.4 E 13 28 7 15 1020.2 1020.2 0.0
20/04:30pm 20.1 17.4 11.6 58 4.7 E 17 32 9 17 1019.6 1019.6 0.0
20/04:00pm 20.7 18.0 11.6 56 5.0 E 17 26 9 14 1019.6 1019.6 0.0
20/03:30pm 20.7 18.1 12.1 58 4.8 E 17 32 9 17 1019.1 1019.1 0.0
20/03:00pm 21.9 19.7 12.2 54 5.5 E 15 24 8 13 1018.8 1018.8 0.0
20/02:30pm 22.2 20.0 12.2 53 5.6 E 15 22 8 12 1018.7 1018.7 0.0
20/02:00pm 20.6 18.9 12.3 59 4.6 ESE 13 24 7 13 1018.9 1018.9 0.0
20/01:30pm 21.2 19.1 12.3 57 5.0 ESE 15 24 8 13 1018.9 1018.9 0.0
20/01:00pm 21.9 19.9 13.8 60 4.7 E 17 28 9 15 1019.1 1019.1 0.0
20/12:30pm 20.2 18.4 13.4 65 3.9 ENE 15 24 8 13 1019.7 1019.7 0.0
20/12:00pm 20.3 19.4 13.7 66 3.8 E 11 19 6 10 1020.1 1020.1 0.0
20/11:30am 20.9 18.9 12.8 60 4.6 SE 15 20 8 11 1020.5 1020.5 0.0
20/11:00am 23.4 23.4 14.1 56 5.4 ENE 7 19 4 10 1020.6 1020.6 0.0
20/10:30am 22.0 21.1 13.6 59 4.9 E 11 19 6 10 1021.2 1021.2 0.0
20/10:00am 21.1 20.5 13.5 62 4.4 ESE 9 17 5 9 1021.6 1021.6 0.0
20/09:30am 19.9 19.7 12.9 64 4.0 S 6 11 3 6 1021.9 1021.9 0.0
20/09:00am 19.5 19.3 13.0 66 3.7 S 6 9 3 5 1022.0 1022.0 0.0
20/08:30am 18.3 17.9 12.5 69 3.2 WSW 6 9 3 5 1021.8 1021.8 0.0
20/08:00am 18.5 18.7 12.9 70 3.1 SSW 4 9 2 5 1021.6 1021.6 0.0
20/07:30am 18.1 17.8 12.8 71 3.0 SSW 6 13 3 7 1021.3 1021.3 0.0
20/07:00am 16.2 15.6 12.2 77 2.2 SSW 7 11 4 6 1020.8 1020.8 0.0
20/06:30am 15.4 15.7 12.2 81 1.7 SW 2 6 1 3 1020.4 1020.4 0.0
20/06:00am 14.9 14.4 12.0 83 1.6 SSW 6 7 3 4 1020.0 1020.0 0.0
20/05:30am 14.7 14.9 12.0 84 1.5 SW 2 6 1 3 1019.5 1019.5 0.0
20/05:00am 14.8 14.6 11.9 83 1.6 SW 4 7 2 4 1019.1 1019.1 0.0
20/04:30am 14.8 14.8 12.3 85 1.4 WSW 4 7 2 4 1018.7 1018.7 0.0
20/04:00am 14.7 14.9 12.0 84 1.5 SW 2 9 1 5 1018.5 1018.5 0.0
20/03:30am 14.8 15.1 12.3 85 1.4 W 2 6 1 3 1018.3 1018.3 0.0
20/03:00am 15.1 15.5 12.4 84 1.5 WSW 2 4 1 2 1018.3 1018.3 0.0
20/02:30am 15.6 16.6 13.3 86 1.3 CALM 0 0 0 0 1018.4 1018.4 0.0
20/02:00am 15.0 15.8 12.7 86 1.3 CALM 0 4 0 2 1018.7 1018.7 0.0
20/01:30am 15.2 15.9 12.2 82 1.6 CALM 0 0 0 0 1018.8 1018.8 0.0
20/01:00am 16.1 16.8 12.1 77 2.2 CALM 0 2 0 1 1018.9 1018.9 0.0
20/12:30am 17.3 18.0 12.2 72 2.8 CALM 0 4 0 2 1019.0 1019.0 0.0
20/12:00am 17.9 18.4 12.8 72 2.8 NNW 2 4 1 2 1019.2 1019.2 0.0
 
Date/Time
EST
Temp
°C
App
Temp
°C
Dew
Point
Rel
Hum
%
Delta-T
°C
Wind Press
QNH
hPa
Press
MSL
hPa
Rain
since 9 am
mm
Dir
 
Spd
km/h
Gust
km/h
Spd
kts
Gust
kts
19/11:30pm 17.9 18.6 13.4 75 2.5 NNW 2 9 1 5 1019.2 1019.2 0.0
19/11:00pm 17.4 18.1 13.3 77 2.3 N 2 6 1 3 1019.3 1019.3 0.0
19/10:30pm 17.2 17.8 13.1 77 2.3 N 2 4 1 2 1019.5 1019.5 0.0
19/10:00pm 17.7 18.6 13.0 74 2.6 CALM 0 4 0 2 1019.4 1019.4 0.0
19/09:30pm 18.8 19.5 13.4 71 3.1 NNE 2 4 1 2 1019.6 1019.6 0.0
19/09:00pm 18.9 19.6 13.5 71 3.1 NNW 2 6 1 3 1019.5 1019.5 0.0
19/08:30pm 19.2 19.2 13.6 70 3.2 NNE 6 11 3 6 1019.4 1019.4 0.0
19/08:00pm 19.3 19.3 13.5 69 3.3 NNE 6 11 3 6 1019.0 1019.0 0.0
19/07:30pm 19.5 19.3 13.0 66 3.7 NNE 6 11 3 6 1018.8 1018.8 0.0
19/07:00pm 19.9 19.5 12.9 64 3.9 NE 7 15 4 8 1018.6 1018.6 0.0
19/06:30pm 20.0 19.5 12.5 62 4.2 NNE 7 15 4 8 1018.2 1018.2 0.0
19/06:00pm 20.1 19.5 12.3 61 4.4 NNE 7 13 4 7 1017.7 1017.7 0.0
19/05:30pm 20.5 19.4 12.0 58 4.7 NNE 9 19 5 10 1017.1 1017.1 0.0
19/05:00pm 21.4 20.4 12.3 56 5.1 N 9 17 5 9 1016.8 1016.8 0.0
19/04:30pm 21.9 20.7 11.6 52 5.7 NE 9 19 5 10 1016.7 1016.7 0.0
19/04:00pm 22.6 21.0 11.4 49 6.2 NE 11 20 6 11 1016.4 1016.4 0.0
19/03:30pm 22.8 20.9 10.6 46 6.7 NE 11 20 6 11 1016.3 1016.3 0.0
19/03:00pm 23.1 21.0 9.8 43 7.2 NNE 11 19 6 10 1016.4 1016.4 0.0
19/02:30pm 23.4 20.8 9.4 41 7.6 NE 13 19 7 10 1016.5 1016.5 0.0
19/02:00pm 23.2 20.5 8.9 40 7.6 ENE 13 22 7 12 1016.8 1016.8 0.0
19/01:30pm 23.7 21.3 10.0 42 7.5 ENE 13 22 7 12 1017.1 1017.1 0.0
19/01:00pm 24.0 22.2 9.6 40 7.8 ENE 9 20 5 11 1017.8 1017.8 0.0
19/12:30pm 23.9 21.4 8.3 37 8.3 ENE 11 17 6 9 1018.4 1018.4 0.0
19/12:00pm 23.7 21.7 8.6 38 8.0 ENE 9 20 5 11 1018.8 1018.8 0.0
19/11:30am 23.9 22.4 9.1 39 8.0 NNE 7 15 4 8 1019.4 1019.4 0.0
19/11:00am 23.0 20.0 7.9 38 7.9 ENE 13 20 7 11 1020.1 1020.1 0.0
19/10:30am 22.8 21.7 9.9 44 7.0 NNW 6 11 3 6 1020.5 1020.5 0.0
19/10:00am 22.6 21.6 10.4 46 6.7 N 6 13 3 7 1021.0 1021.0 0.0
19/09:30am 20.9 20.2 10.1 50 5.8 WNW 4 7 2 4 1021.4 1021.4 0.0
19/09:00am 20.2 19.4 9.7 51 5.6 SW 4 6 2 3 1021.5 1021.5 0.0
19/08:30am 17.9 16.8 8.5 54 4.8 WSW 4 7 2 4 1021.7 1021.7 0.0
19/08:00am 16.7 15.2 8.4 58 4.2 SW 6 9 3 5 1021.6 1021.6 0.0
19/07:30am 15.3 13.7 8.1 62 3.6 WSW 6 9 3 5 1021.5 1021.5 0.0
19/07:00am 13.8 12.6 8.0 68 2.9 WSW 4 11 2 6 1021.1 1021.1 0.0
19/06:30am 12.5 11.3 8.0 74 2.2 SW 4 7 2 4 1020.6 1020.6 0.0
19/06:00am 11.4 10.1 7.7 78 1.8 SW 4 7 2 4 1020.6 1020.6 0.0
19/05:30am 11.9 10.7 8.2 78 1.8 SW 4 7 2 4 1020.5 1020.5 0.0
19/05:00am 11.5 10.9 7.6 77 1.9 CALM 0 4 0 2 1020.0 1020.0 0.0
19/04:30am 12.0 11.1 7.9 76 2.0 SW 2 6 1 3 1019.6 1019.6 0.0
19/04:00am 11.6 11.1 7.7 77 1.9 CALM 0 0 0 0 1019.2 1019.2 0.0
19/03:30am 12.2 11.6 7.5 73 2.3 CALM 0 0 0 0 1019.1 1019.1 0.0
19/03:00am 12.9 12.1 8.0 72 2.4 WSW 2 6 1 3 1019.3 1019.3 0.0
19/02:30am 12.8 11.8 7.5 70 2.6 SW 2 7 1 4 1019.1 1019.1 0.0
19/02:00am 13.2 12.4 8.1 71 2.5 SW 2 6 1 3 1019.4 1019.4 0.0
19/01:30am 13.4 12.5 9.1 75 2.2 W 4 6 2 3 1019.5 1019.5 0.0
19/01:00am 13.6 13.8 10.6 82 1.6 CALM 0 4 0 2 1019.5 1019.5 0.0
19/12:30am 13.0 12.9 9.4 79 1.8 CALM 0 0 0 0 1019.7 1019.7 0.0
19/12:00am 13.6 13.1 9.5 76 2.1 SSE 2 4 1 2 1019.9 1019.9 0.0
 
Date/Time
EST
Temp
°C
App
Temp
°C
Dew
Point
Rel
Hum
%
Delta-T
°C
Wind Press
QNH
hPa
Press
MSL
hPa
Rain
since 9 am
mm
Dir
 
Spd
km/h
Gust
km/h
Spd
kts
Gust
kts
18/11:30pm 14.4 14.3 9.6 73 2.5 CALM 0 0 0 0 1020.0 1020.0 0.0
18/11:00pm 14.4 14.2 9.2 71 2.6 CALM 0 0 0 0 1019.9 1019.9 0.0
18/10:30pm 15.3 15.1 9.2 67 3.1 CALM 0 4 0 2 1019.9 1019.9 0.0
18/10:00pm 15.9 15.8 9.3 65 3.4 CALM 0 4 0 2 1019.9 1019.9 0.0
18/09:30pm 16.6 16.2 9.8 64 3.6 NNE 2 4 1 2 1019.8 1019.8 0.0
18/09:00pm 16.4 16.2 9.1 62 3.8 CALM 0 2 0 1 1019.7 1019.7 0.0
18/08:30pm 17.6 16.8 9.5 59 4.2 ENE 4 6 2 3 1019.4 1019.4 0.0
18/08:00pm 18.3 17.4 9.4 56 4.7 ENE 4 7 2 4 1019.2 1019.2 0.0
18/07:30pm 18.5 17.8 8.5 52 5.2 NNE 2 6 1 3 1018.9 1018.9 0.0
18/07:00pm 19.0 17.9 8.4 50 5.5 NE 4 9 2 5 1018.4 1018.4 0.0
18/06:30pm 19.4 17.9 8.4 49 5.7 NE 6 13 3 7 1018.0 1018.0 0.0
18/06:00pm 20.0 18.1 7.7 45 6.3 NE 7 15 4 8 1017.5 1017.5 0.0
18/05:30pm 20.5 18.6 7.5 43 6.7 ENE 7 15 4 8 1016.9 1016.9 0.0
18/05:00pm 21.5 18.6 6.6 38 7.6 ENE 11 20 6 11 1016.5 1016.5 0.0
18/04:30pm 22.1 18.6 5.5 34 8.3 ENE 13 20 7 11 1016.0 1016.0 0.0
18/04:00pm 22.9 18.9 4.9 31 8.9 ENE 15 20 8 11 1015.6 1015.6 0.0
18/03:30pm 26.9 23.8 -2.8 14 13.2 SW 4 15 2 8 1015.1 1015.1 0.0
18/03:00pm 26.8 23.4 -2.0 15 12.9 WNW 6 11 3 6 1015.2 1015.2 0.0
18/02:30pm 26.4 22.7 -3.2 14 13.0 S 7 15 4 8 1015.3 1015.3 0.0
18/02:00pm 26.3 22.7 -2.4 15 12.7 WSW 7 17 4 9 1015.4 1015.4 0.0

Other Formats:

Comma delimited format used in spreadsheet applications
http://www.bom.gov.au/fwo/IDQ60801/IDQ60801.94576.axf

JavaScript Object Notation format (JSON) in row-major order
http://www.bom.gov.au/fwo/IDQ60801/IDQ60801.94576.json